sensor_id;sensor_type;location;lat;lon;timestamp;temperature;humidity
4505;DHT22;2265;48.794;9.520;2024-03-07T00:00:18;6.00;98.00
4505;DHT22;2265;48.794;9.520;2024-03-07T00:02:48;6.20;98.00
4505;DHT22;2265;48.794;9.520;2024-03-07T00:05:16;6.30;98.00
4505;DHT22;2265;48.794;9.520;2024-03-07T00:07:43;6.40;98.00
4505;DHT22;2265;48.794;9.520;2024-03-07T00:10:11;6.50;98.00
4505;DHT22;2265;48.794;9.520;2024-03-07T00:12:39;6.60;98.00
4505;DHT22;2265;48.794;9.520;2024-03-07T00:15:08;6.50;98.00
4505;DHT22;2265;48.794;9.520;2024-03-07T00:17:41;6.20;98.00
4505;DHT22;2265;48.794;9.520;2024-03-07T00:20:09;6.20;98.00
4505;DHT22;2265;48.794;9.520;2024-03-07T00:22:40;6.10;98.00
4505;DHT22;2265;48.794;9.520;2024-03-07T00:25:08;6.00;98.00
4505;DHT22;2265;48.794;9.520;2024-03-07T00:27:37;5.90;98.00
4505;DHT22;2265;48.794;9.520;2024-03-07T00:30:06;5.70;98.00
4505;DHT22;2265;48.794;9.520;2024-03-07T00:32:34;5.70;98.00
4505;DHT22;2265;48.794;9.520;2024-03-07T00:35:07;5.70;98.00
4505;DHT22;2265;48.794;9.520;2024-03-07T00:37:35;5.60;98.00
4505;DHT22;2265;48.794;9.520;2024-03-07T00:40:03;5.60;98.00
4505;DHT22;2265;48.794;9.520;2024-03-07T00:42:31;5.60;98.00
4505;DHT22;2265;48.794;9.520;2024-03-07T00:45:00;5.50;98.00
4505;DHT22;2265;48.794;9.520;2024-03-07T00:47:29;5.50;98.00
4505;DHT22;2265;48.794;9.520;2024-03-07T00:49:57;5.60;98.00
4505;DHT22;2265;48.794;9.520;2024-03-07T00:52:26;5.60;98.00
4505;DHT22;2265;48.794;9.520;2024-03-07T00:54:53;5.70;98.00
4505;DHT22;2265;48.794;9.520;2024-03-07T00:57:20;5.50;98.00
4505;DHT22;2265;48.794;9.520;2024-03-07T00:59:47;5.30;98.00
4505;DHT22;2265;48.794;9.520;2024-03-07T01:02:14;5.00;98.00
4505;DHT22;2265;48.794;9.520;2024-03-07T01:04:42;5.00;98.00
4505;DHT22;2265;48.794;9.520;2024-03-07T01:07:09;4.90;98.00
4505;DHT22;2265;48.794;9.520;2024-03-07T01:09:38;4.90;98.00
4505;DHT22;2265;48.794;9.520;2024-03-07T01:12:05;4.80;98.00
4505;DHT22;2265;48.794;9.520;2024-03-07T01:14:32;4.90;98.00
4505;DHT22;2265;48.794;9.520;2024-03-07T01:17:01;4.70;98.00
4505;DHT22;2265;48.794;9.520;2024-03-07T01:19:28;4.50;98.00
4505;DHT22;2265;48.794;9.520;2024-03-07T01:21:55;4.50;98.00
4505;DHT22;2265;48.794;9.520;2024-03-07T01:24:22;4.40;98.00
4505;DHT22;2265;48.794;9.520;2024-03-07T01:26:51;4.30;98.00
4505;DHT22;2265;48.794;9.520;2024-03-07T01:29:18;4.20;98.00
4505;DHT22;2265;48.794;9.520;2024-03-07T01:31:46;4.20;98.00
4505;DHT22;2265;48.794;9.520;2024-03-07T01:34:14;4.30;98.00
4505;DHT22;2265;48.794;9.520;2024-03-07T01:36:42;4.20;98.00
4505;DHT22;2265;48.794;9.520;2024-03-07T01:39:09;4.30;98.00
4505;DHT22;2265;48.794;9.520;2024-03-07T01:41:36;4.40;98.00
4505;DHT22;2265;48.794;9.520;2024-03-07T01:44:04;4.50;98.00
4505;DHT22;2265;48.794;9.520;2024-03-07T01:46:33;4.50;98.00
4505;DHT22;2265;48.794;9.520;2024-03-07T01:49:00;4.50;98.00
4505;DHT22;2265;48.794;9.520;2024-03-07T01:51:28;4.50;98.00
4505;DHT22;2265;48.794;9.520;2024-03-07T01:53:55;4.40;98.00
4505;DHT22;2265;48.794;9.520;2024-03-07T01:56:23;4.40;98.00
4505;DHT22;2265;48.794;9.520;2024-03-07T01:58:50;4.30;98.00
4505;DHT22;2265;48.794;9.520;2024-03-07T02:01:21;4.30;98.00
4505;DHT22;2265;48.794;9.520;2024-03-07T02:03:48;4.30;98.00
4505;DHT22;2265;48.794;9.520;2024-03-07T02:06:15;4.20;98.00
4505;DHT22;2265;48.794;9.520;2024-03-07T02:08:42;4.00;98.00
4505;DHT22;2265;48.794;9.520;2024-03-07T02:11:10;4.00;98.00
4505;DHT22;2265;48.794;9.520;2024-03-07T02:13:38;3.90;98.00
4505;DHT22;2265;48.794;9.520;2024-03-07T02:16:05;4.10;98.00
4505;DHT22;2265;48.794;9.520;2024-03-07T02:18:35;4.20;98.00
4505;DHT22;2265;48.794;9.520;2024-03-07T02:21:07;4.20;98.00
4505;DHT22;2265;48.794;9.520;2024-03-07T02:23:36;4.20;98.00
4505;DHT22;2265;48.794;9.520;2024-03-07T02:26:03;4.10;98.00
4505;DHT22;2265;48.794;9.520;2024-03-07T02:28:30;4.00;98.00
4505;DHT22;2265;48.794;9.520;2024-03-07T02:30:57;3.90;98.00
4505;DHT22;2265;48.794;9.520;2024-03-07T02:33:24;3.80;98.00
4505;DHT22;2265;48.794;9.520;2024-03-07T02:35:51;3.90;98.00
4505;DHT22;2265;48.794;9.520;2024-03-07T02:38:21;3.90;98.00
4505;DHT22;2265;48.794;9.520;2024-03-07T02:40:48;3.90;98.00
4505;DHT22;2265;48.794;9.520;2024-03-07T02:43:15;3.80;98.00
4505;DHT22;2265;48.794;9.520;2024-03-07T02:45:42;3.90;98.00
4505;DHT22;2265;48.794;9.520;2024-03-07T02:48:09;3.90;98.00
4505;DHT22;2265;48.794;9.520;2024-03-07T02:50:37;3.90;98.00
4505;DHT22;2265;48.794;9.520;2024-03-07T02:53:07;3.70;98.00
4505;DHT22;2265;48.794;9.520;2024-03-07T02:55:36;3.50;98.00
4505;DHT22;2265;48.794;9.520;2024-03-07T02:58:03;3.60;98.00
4505;DHT22;2265;48.794;9.520;2024-03-07T03:00:31;3.60;98.00
4505;DHT22;2265;48.794;9.520;2024-03-07T03:02:58;3.70;98.00
4505;DHT22;2265;48.794;9.520;2024-03-07T03:05:26;3.80;98.00
4505;DHT22;2265;48.794;9.520;2024-03-07T03:07:53;3.60;98.00
4505;DHT22;2265;48.794;9.520;2024-03-07T03:10:21;3.50;98.00
4505;DHT22;2265;48.794;9.520;2024-03-07T03:12:53;3.50;98.00
4505;DHT22;2265;48.794;9.520;2024-03-07T03:15:21;3.50;98.00
4505;DHT22;2265;48.794;9.520;2024-03-07T03:17:49;3.30;98.00
4505;DHT22;2265;48.794;9.520;2024-03-07T03:20:17;3.20;98.00
4505;DHT22;2265;48.794;9.520;2024-03-07T03:22:52;3.10;98.00
4505;DHT22;2265;48.794;9.520;2024-03-07T03:25:19;3.00;98.00
4505;DHT22;2265;48.794;9.520;2024-03-07T03:27:47;3.00;98.00
4505;DHT22;2265;48.794;9.520;2024-03-07T03:30:16;3.00;98.00
4505;DHT22;2265;48.794;9.520;2024-03-07T03:32:45;2.90;98.00
4505;DHT22;2265;48.794;9.520;2024-03-07T03:35:15;3.00;98.00
4505;DHT22;2265;48.794;9.520;2024-03-07T03:37:43;3.10;98.00
4505;DHT22;2265;48.794;9.520;2024-03-07T03:40:11;3.20;98.00
4505;DHT22;2265;48.794;9.520;2024-03-07T03:42:39;3.30;98.00
4505;DHT22;2265;48.794;9.520;2024-03-07T03:45:08;3.30;98.00
4505;DHT22;2265;48.794;9.520;2024-03-07T03:47:42;3.00;98.00
4505;DHT22;2265;48.794;9.520;2024-03-07T03:50:10;3.00;98.00
4505;DHT22;2265;48.794;9.520;2024-03-07T03:52:39;2.90;98.00
4505;DHT22;2265;48.794;9.520;2024-03-07T03:55:08;2.90;98.00
4505;DHT22;2265;48.794;9.520;2024-03-07T03:57:38;2.80;98.00
4505;DHT22;2265;48.794;9.520;2024-03-07T04:00:07;2.70;98.00
4505;DHT22;2265;48.794;9.520;2024-03-07T04:02:40;2.70;98.00
4505;DHT22;2265;48.794;9.520;2024-03-07T04:05:08;2.70;98.00
4505;DHT22;2265;48.794;9.520;2024-03-07T04:07:36;2.60;98.00
4505;DHT22;2265;48.794;9.520;2024-03-07T04:10:04;2.50;98.00
4505;DHT22;2265;48.794;9.520;2024-03-07T04:12:33;2.50;98.00
4505;DHT22;2265;48.794;9.520;2024-03-07T04:15:01;2.50;98.00
4505;DHT22;2265;48.794;9.520;2024-03-07T04:17:29;2.40;98.00
4505;DHT22;2265;48.794;9.520;2024-03-07T04:19:58;2.50;98.00
4505;DHT22;2265;48.794;9.520;2024-03-07T04:22:26;2.60;98.00
4505;DHT22;2265;48.794;9.520;2024-03-07T04:24:53;2.70;98.00
4505;DHT22;2265;48.794;9.520;2024-03-07T04:27:21;2.80;98.00
4505;DHT22;2265;48.794;9.520;2024-03-07T04:29:48;2.80;98.00
4505;DHT22;2265;48.794;9.520;2024-03-07T04:32:16;2.70;98.00
4505;DHT22;2265;48.794;9.520;2024-03-07T04:34:43;2.60;98.00
4505;DHT22;2265;48.794;9.520;2024-03-07T04:37:12;2.70;98.00
4505;DHT22;2265;48.794;9.520;2024-03-07T04:39:39;2.40;98.00
4505;DHT22;2265;48.794;9.520;2024-03-07T04:42:07;2.40;98.00
4505;DHT22;2265;48.794;9.520;2024-03-07T04:44:35;2.40;98.00
4505;DHT22;2265;48.794;9.520;2024-03-07T04:47:03;2.40;98.00
4505;DHT22;2265;48.794;9.520;2024-03-07T04:49:31;2.50;98.00
4505;DHT22;2265;48.794;9.520;2024-03-07T04:51:58;2.50;98.00
4505;DHT22;2265;48.794;9.520;2024-03-07T04:54:29;2.60;98.00
4505;DHT22;2265;48.794;9.520;2024-03-07T04:56:57;2.70;98.00
4505;DHT22;2265;48.794;9.520;2024-03-07T04:59:24;2.70;98.00
4505;DHT22;2265;48.794;9.520;2024-03-07T05:01:51;2.70;98.00
4505;DHT22;2265;48.794;9.520;2024-03-07T05:04:18;2.80;98.00
4505;DHT22;2265;48.794;9.520;2024-03-07T05:06:45;2.80;98.00
4505;DHT22;2265;48.794;9.520;2024-03-07T05:09:14;2.70;98.00
4505;DHT22;2265;48.794;9.520;2024-03-07T05:11:50;2.50;98.00
4505;DHT22;2265;48.794;9.520;2024-03-07T05:14:18;2.30;98.00
4505;DHT22;2265;48.794;9.520;2024-03-07T05:16:47;2.30;98.00
4505;DHT22;2265;48.794;9.520;2024-03-07T05:19:31;2.30;98.00
4505;DHT22;2265;48.794;9.520;2024-03-07T05:21:58;2.50;98.00
4505;DHT22;2265;48.794;9.520;2024-03-07T05:24:25;2.50;98.00
4505;DHT22;2265;48.794;9.520;2024-03-07T05:26:54;2.50;98.00
4505;DHT22;2265;48.794;9.520;2024-03-07T05:29:22;2.60;98.00
4505;DHT22;2265;48.794;9.520;2024-03-07T05:31:51;2.70;98.00
4505;DHT22;2265;48.794;9.520;2024-03-07T05:34:18;2.60;98.00
4505;DHT22;2265;48.794;9.520;2024-03-07T05:36:46;2.70;98.00
4505;DHT22;2265;48.794;9.520;2024-03-07T05:39:15;2.80;98.00
4505;DHT22;2265;48.794;9.520;2024-03-07T05:41:43;2.60;98.00
4505;DHT22;2265;48.794;9.520;2024-03-07T05:44:13;2.60;98.00
4505;DHT22;2265;48.794;9.520;2024-03-07T05:46:41;2.50;98.00
4505;DHT22;2265;48.794;9.520;2024-03-07T05:49:12;2.60;98.00
4505;DHT22;2265;48.794;9.520;2024-03-07T05:51:40;2.60;98.00
4505;DHT22;2265;48.794;9.520;2024-03-07T05:54:10;2.60;98.00
4505;DHT22;2265;48.794;9.520;2024-03-07T05:56:39;2.40;98.00
4505;DHT22;2265;48.794;9.520;2024-03-07T05:59:08;2.30;98.00
4505;DHT22;2265;48.794;9.520;2024-03-07T06:01:37;2.30;98.00
4505;DHT22;2265;48.794;9.520;2024-03-07T06:04:06;2.50;98.00
4505;DHT22;2265;48.794;9.520;2024-03-07T06:06:34;2.50;98.00
4505;DHT22;2265;48.794;9.520;2024-03-07T06:09:03;2.70;98.00
4505;DHT22;2265;48.794;9.520;2024-03-07T06:11:33;2.60;98.00
4505;DHT22;2265;48.794;9.520;2024-03-07T06:14:01;2.70;98.00
4505;DHT22;2265;48.794;9.520;2024-03-07T06:16:29;2.60;98.00
4505;DHT22;2265;48.794;9.520;2024-03-07T06:19:00;2.70;98.00
4505;DHT22;2265;48.794;9.520;2024-03-07T06:21:27;2.70;98.00
4505;DHT22;2265;48.794;9.520;2024-03-07T06:23:57;2.50;98.00
4505;DHT22;2265;48.794;9.520;2024-03-07T06:26:26;2.50;98.00
4505;DHT22;2265;48.794;9.520;2024-03-07T06:29:03;2.60;98.00
4505;DHT22;2265;48.794;9.520;2024-03-07T06:31:32;2.50;98.00
4505;DHT22;2265;48.794;9.520;2024-03-07T06:34:01;2.60;98.00
4505;DHT22;2265;48.794;9.520;2024-03-07T06:36:28;2.50;98.00
4505;DHT22;2265;48.794;9.520;2024-03-07T06:38:56;2.50;98.00
4505;DHT22;2265;48.794;9.520;2024-03-07T06:41:23;2.60;98.00
4505;DHT22;2265;48.794;9.520;2024-03-07T06:43:51;2.60;98.00
4505;DHT22;2265;48.794;9.520;2024-03-07T06:46:20;2.50;98.00
4505;DHT22;2265;48.794;9.520;2024-03-07T06:48:48;2.50;98.00
4505;DHT22;2265;48.794;9.520;2024-03-07T06:51:18;2.40;98.00
4505;DHT22;2265;48.794;9.520;2024-03-07T06:53:45;2.30;98.00
4505;DHT22;2265;48.794;9.520;2024-03-07T06:56:13;2.10;98.00
4505;DHT22;2265;48.794;9.520;2024-03-07T06:58:40;2.10;98.00
4505;DHT22;2265;48.794;9.520;2024-03-07T07:01:08;2.20;98.00
4505;DHT22;2265;48.794;9.520;2024-03-07T07:03:36;2.40;98.00
4505;DHT22;2265;48.794;9.520;2024-03-07T07:06:03;2.50;98.00
4505;DHT22;2265;48.794;9.520;2024-03-07T07:08:34;2.60;98.00
4505;DHT22;2265;48.794;9.520;2024-03-07T07:11:01;2.60;98.00
4505;DHT22;2265;48.794;9.520;2024-03-07T07:13:29;2.50;98.00
4505;DHT22;2265;48.794;9.520;2024-03-07T07:15:56;2.60;98.00
4505;DHT22;2265;48.794;9.520;2024-03-07T07:18:25;2.60;98.00
4505;DHT22;2265;48.794;9.520;2024-03-07T07:20:52;2.70;98.00
4505;DHT22;2265;48.794;9.520;2024-03-07T07:23:19;2.80;98.00
4505;DHT22;2265;48.794;9.520;2024-03-07T07:25:49;2.80;98.00
4505;DHT22;2265;48.794;9.520;2024-03-07T07:28:17;2.90;98.00
4505;DHT22;2265;48.794;9.520;2024-03-07T07:30:44;3.00;98.00
4505;DHT22;2265;48.794;9.520;2024-03-07T07:33:12;3.00;98.00
4505;DHT22;2265;48.794;9.520;2024-03-07T07:35:40;2.90;98.00
4505;DHT22;2265;48.794;9.520;2024-03-07T07:38:07;2.80;98.00
4505;DHT22;2265;48.794;9.520;2024-03-07T07:40:36;2.80;98.00
4505;DHT22;2265;48.794;9.520;2024-03-07T07:43:05;2.90;98.00
4505;DHT22;2265;48.794;9.520;2024-03-07T07:45:33;3.00;98.00
4505;DHT22;2265;48.794;9.520;2024-03-07T07:48:01;3.10;98.00
4505;DHT22;2265;48.794;9.520;2024-03-07T07:50:28;3.30;98.00
4505;DHT22;2265;48.794;9.520;2024-03-07T07:52:57;3.30;98.00
4505;DHT22;2265;48.794;9.520;2024-03-07T07:55:26;3.30;98.00
4505;DHT22;2265;48.794;9.520;2024-03-07T07:57:55;3.50;98.00
4505;DHT22;2265;48.794;9.520;2024-03-07T08:00:24;3.50;98.00
4505;DHT22;2265;48.794;9.520;2024-03-07T08:02:54;3.80;98.00
4505;DHT22;2265;48.794;9.520;2024-03-07T08:05:22;3.70;98.00
4505;DHT22;2265;48.794;9.520;2024-03-07T08:07:50;3.80;98.00
4505;DHT22;2265;48.794;9.520;2024-03-07T08:10:18;3.70;98.00
4505;DHT22;2265;48.794;9.520;2024-03-07T08:12:46;3.80;98.00
4505;DHT22;2265;48.794;9.520;2024-03-07T08:15:13;3.80;98.00
4505;DHT22;2265;48.794;9.520;2024-03-07T08:17:43;4.00;98.00
4505;DHT22;2265;48.794;9.520;2024-03-07T08:20:11;4.00;98.00
4505;DHT22;2265;48.794;9.520;2024-03-07T08:22:39;4.20;98.00
4505;DHT22;2265;48.794;9.520;2024-03-07T08:25:08;4.40;98.00
4505;DHT22;2265;48.794;9.520;2024-03-07T08:27:36;4.50;98.00
4505;DHT22;2265;48.794;9.520;2024-03-07T08:30:05;4.70;98.00
4505;DHT22;2265;48.794;9.520;2024-03-07T08:32:33;4.80;98.00
4505;DHT22;2265;48.794;9.520;2024-03-07T08:35:04;4.90;98.00
4505;DHT22;2265;48.794;9.520;2024-03-07T08:37:35;5.00;98.00
4505;DHT22;2265;48.794;9.520;2024-03-07T08:40:03;5.10;98.00
4505;DHT22;2265;48.794;9.520;2024-03-07T08:42:33;5.10;98.00
4505;DHT22;2265;48.794;9.520;2024-03-07T08:45:00;5.30;98.00
4505;DHT22;2265;48.794;9.520;2024-03-07T08:47:30;5.40;98.00
4505;DHT22;2265;48.794;9.520;2024-03-07T08:49:58;5.50;98.00
4505;DHT22;2265;48.794;9.520;2024-03-07T08:52:26;5.40;98.00
4505;DHT22;2265;48.794;9.520;2024-03-07T08:54:54;5.50;98.00
4505;DHT22;2265;48.794;9.520;2024-03-07T08:57:21;5.50;98.00
4505;DHT22;2265;48.794;9.520;2024-03-07T08:59:48;5.60;98.00
4505;DHT22;2265;48.794;9.520;2024-03-07T09:02:16;5.70;98.00
4505;DHT22;2265;48.794;9.520;2024-03-07T09:04:43;5.90;98.00
4505;DHT22;2265;48.794;9.520;2024-03-07T09:07:10;5.80;98.00
4505;DHT22;2265;48.794;9.520;2024-03-07T09:09:39;5.90;98.00
4505;DHT22;2265;48.794;9.520;2024-03-07T09:12:08;5.90;98.00
4505;DHT22;2265;48.794;9.520;2024-03-07T09:14:46;6.00;98.00
4505;DHT22;2265;48.794;9.520;2024-03-07T09:17:14;6.10;98.00
4505;DHT22;2265;48.794;9.520;2024-03-07T09:19:42;6.40;98.00
4505;DHT22;2265;48.794;9.520;2024-03-07T09:22:11;6.50;98.00
4505;DHT22;2265;48.794;9.520;2024-03-07T09:24:40;6.60;98.00
4505;DHT22;2265;48.794;9.520;2024-03-07T09:27:07;6.80;98.00
4505;DHT22;2265;48.794;9.520;2024-03-07T09:29:34;7.00;98.00
4505;DHT22;2265;48.794;9.520;2024-03-07T09:32:02;7.20;98.00
4505;DHT22;2265;48.794;9.520;2024-03-07T09:34:30;7.30;98.00
4505;DHT22;2265;48.794;9.520;2024-03-07T09:36:57;7.30;98.00
4505;DHT22;2265;48.794;9.520;2024-03-07T09:39:25;7.40;98.00
4505;DHT22;2265;48.794;9.520;2024-03-07T09:41:54;7.50;98.00
4505;DHT22;2265;48.794;9.520;2024-03-07T09:44:24;7.50;98.00
4505;DHT22;2265;48.794;9.520;2024-03-07T09:46:55;7.60;98.00
4505;DHT22;2265;48.794;9.520;2024-03-07T09:49:24;7.60;98.00
4505;DHT22;2265;48.794;9.520;2024-03-07T09:51:52;7.70;98.00
4505;DHT22;2265;48.794;9.520;2024-03-07T09:54:20;7.80;98.00
4505;DHT22;2265;48.794;9.520;2024-03-07T09:56:50;7.90;98.00
4505;DHT22;2265;48.794;9.520;2024-03-07T09:59:24;8.00;98.00
4505;DHT22;2265;48.794;9.520;2024-03-07T10:01:54;8.20;98.00
4505;DHT22;2265;48.794;9.520;2024-03-07T10:04:29;8.50;98.00
4505;DHT22;2265;48.794;9.520;2024-03-07T10:06:56;8.60;98.00
4505;DHT22;2265;48.794;9.520;2024-03-07T10:09:23;8.70;98.00
4505;DHT22;2265;48.794;9.520;2024-03-07T10:11:56;8.80;98.00
4505;DHT22;2265;48.794;9.520;2024-03-07T10:14:25;8.80;98.00
4505;DHT22;2265;48.794;9.520;2024-03-07T10:16:53;8.80;98.00
4505;DHT22;2265;48.794;9.520;2024-03-07T10:19:24;8.80;98.00
4505;DHT22;2265;48.794;9.520;2024-03-07T10:21:53;8.70;98.00
4505;DHT22;2265;48.794;9.520;2024-03-07T10:24:24;8.90;98.00
4505;DHT22;2265;48.794;9.520;2024-03-07T10:26:51;9.20;98.00
4505;DHT22;2265;48.794;9.520;2024-03-07T10:29:20;9.40;98.00
4505;DHT22;2265;48.794;9.520;2024-03-07T10:31:50;9.70;98.00
4505;DHT22;2265;48.794;9.520;2024-03-07T10:34:17;9.80;98.00
4505;DHT22;2265;48.794;9.520;2024-03-07T10:36:44;9.60;98.00
4505;DHT22;2265;48.794;9.520;2024-03-07T10:39:13;9.50;98.00
4505;DHT22;2265;48.794;9.520;2024-03-07T10:41:45;9.30;98.00
4505;DHT22;2265;48.794;9.520;2024-03-07T10:44:19;9.10;98.00
4505;DHT22;2265;48.794;9.520;2024-03-07T10:46:54;9.00;98.00
4505;DHT22;2265;48.794;9.520;2024-03-07T10:49:25;8.90;98.00
4505;DHT22;2265;48.794;9.520;2024-03-07T10:52:01;8.80;98.00
4505;DHT22;2265;48.794;9.520;2024-03-07T10:54:36;8.80;98.00
4505;DHT22;2265;48.794;9.520;2024-03-07T10:57:17;8.70;98.00
4505;DHT22;2265;48.794;9.520;2024-03-07T10:59:50;8.80;98.00
4505;DHT22;2265;48.794;9.520;2024-03-07T11:02:29;8.80;98.00
4505;DHT22;2265;48.794;9.520;2024-03-07T11:04:58;8.60;98.00
4505;DHT22;2265;48.794;9.520;2024-03-07T11:07:26;8.70;98.00
4505;DHT22;2265;48.794;9.520;2024-03-07T11:09:55;9.10;98.00
4505;DHT22;2265;48.794;9.520;2024-03-07T11:12:24;9.30;98.00
4505;DHT22;2265;48.794;9.520;2024-03-07T11:14:55;9.80;98.00
4505;DHT22;2265;48.794;9.520;2024-03-07T11:17:24;10.30;98.00
4505;DHT22;2265;48.794;9.520;2024-03-07T11:19:53;10.40;98.00
4505;DHT22;2265;48.794;9.520;2024-03-07T11:22:29;10.50;98.00
4505;DHT22;2265;48.794;9.520;2024-03-07T11:25:05;10.30;98.00
4505;DHT22;2265;48.794;9.520;2024-03-07T11:27:36;10.30;98.00
4505;DHT22;2265;48.794;9.520;2024-03-07T11:30:08;10.20;98.00
4505;DHT22;2265;48.794;9.520;2024-03-07T11:32:38;10.10;98.00
4505;DHT22;2265;48.794;9.520;2024-03-07T11:35:11;10.00;98.00
4505;DHT22;2265;48.794;9.520;2024-03-07T11:37:40;10.20;98.00
4505;DHT22;2265;48.794;9.520;2024-03-07T11:40:10;10.10;98.00
4505;DHT22;2265;48.794;9.520;2024-03-07T11:42:44;10.00;98.00
4505;DHT22;2265;48.794;9.520;2024-03-07T11:45:14;9.80;98.00
4505;DHT22;2265;48.794;9.520;2024-03-07T11:47:52;9.80;98.00
4505;DHT22;2265;48.794;9.520;2024-03-07T11:50:25;9.60;98.00
4505;DHT22;2265;48.794;9.520;2024-03-07T11:52:52;9.60;98.00
4505;DHT22;2265;48.794;9.520;2024-03-07T11:55:20;9.60;98.00
4505;DHT22;2265;48.794;9.520;2024-03-07T11:57:47;9.70;98.00
4505;DHT22;2265;48.794;9.520;2024-03-07T12:00:17;9.60;98.00
4505;DHT22;2265;48.794;9.520;2024-03-07T12:02:45;9.60;98.00
4505;DHT22;2265;48.794;9.520;2024-03-07T12:05:15;9.60;98.00
4505;DHT22;2265;48.794;9.520;2024-03-07T12:07:43;9.70;98.00
4505;DHT22;2265;48.794;9.520;2024-03-07T12:10:11;9.70;98.00
4505;DHT22;2265;48.794;9.520;2024-03-07T12:12:38;9.60;98.00
4505;DHT22;2265;48.794;9.520;2024-03-07T12:15:06;9.60;98.00
4505;DHT22;2265;48.794;9.520;2024-03-07T12:17:41;9.50;98.00
4505;DHT22;2265;48.794;9.520;2024-03-07T12:20:09;9.60;98.00
4505;DHT22;2265;48.794;9.520;2024-03-07T12:22:55;9.60;98.00
4505;DHT22;2265;48.794;9.520;2024-03-07T12:25:23;9.50;98.00
4505;DHT22;2265;48.794;9.520;2024-03-07T12:28:01;9.50;98.00
4505;DHT22;2265;48.794;9.520;2024-03-07T12:30:33;9.50;98.00
4505;DHT22;2265;48.794;9.520;2024-03-07T12:33:02;9.50;98.00
4505;DHT22;2265;48.794;9.520;2024-03-07T12:35:32;9.60;98.00
4505;DHT22;2265;48.794;9.520;2024-03-07T12:38:01;9.70;98.00
4505;DHT22;2265;48.794;9.520;2024-03-07T12:40:29;9.70;98.00
4505;DHT22;2265;48.794;9.520;2024-03-07T12:42:59;9.80;98.00
4505;DHT22;2265;48.794;9.520;2024-03-07T12:45:28;9.80;98.00
4505;DHT22;2265;48.794;9.520;2024-03-07T12:47:59;9.70;98.00
4505;DHT22;2265;48.794;9.520;2024-03-07T12:50:30;9.70;98.00
4505;DHT22;2265;48.794;9.520;2024-03-07T12:53:02;9.80;98.00
4505;DHT22;2265;48.794;9.520;2024-03-07T12:55:31;9.70;98.00
4505;DHT22;2265;48.794;9.520;2024-03-07T12:57:58;9.60;98.00
4505;DHT22;2265;48.794;9.520;2024-03-07T13:00:26;9.80;98.00
4505;DHT22;2265;48.794;9.520;2024-03-07T13:02:55;10.00;98.00
4505;DHT22;2265;48.794;9.520;2024-03-07T13:05:23;10.50;98.00
4505;DHT22;2265;48.794;9.520;2024-03-07T13:07:52;11.60;98.00
4505;DHT22;2265;48.794;9.520;2024-03-07T13:10:20;12.30;98.00
4505;DHT22;2265;48.794;9.520;2024-03-07T13:12:47;12.20;98.00
4505;DHT22;2265;48.794;9.520;2024-03-07T13:15:15;11.90;98.00
4505;DHT22;2265;48.794;9.520;2024-03-07T13:17:43;11.50;98.00
4505;DHT22;2265;48.794;9.520;2024-03-07T13:20:11;11.20;98.00
4505;DHT22;2265;48.794;9.520;2024-03-07T13:22:41;11.20;98.00
4505;DHT22;2265;48.794;9.520;2024-03-07T13:25:11;11.10;98.00
4505;DHT22;2265;48.794;9.520;2024-03-07T13:27:51;11.20;98.00
4505;DHT22;2265;48.794;9.520;2024-03-07T13:30:21;11.10;98.00
4505;DHT22;2265;48.794;9.520;2024-03-07T13:32:51;11.10;98.00
4505;DHT22;2265;48.794;9.520;2024-03-07T13:35:19;11.10;98.00
4505;DHT22;2265;48.794;9.520;2024-03-07T13:37:48;11.10;98.00
4505;DHT22;2265;48.794;9.520;2024-03-07T13:40:16;11.10;98.00
4505;DHT22;2265;48.794;9.520;2024-03-07T13:42:54;11.20;98.00
4505;DHT22;2265;48.794;9.520;2024-03-07T13:45:23;11.40;98.00
4505;DHT22;2265;48.794;9.520;2024-03-07T13:47:54;11.60;98.00
4505;DHT22;2265;48.794;9.520;2024-03-07T13:50:26;11.70;98.00
4505;DHT22;2265;48.794;9.520;2024-03-07T13:52:55;11.70;98.00
4505;DHT22;2265;48.794;9.520;2024-03-07T13:55:53;11.60;98.00
4505;DHT22;2265;48.794;9.520;2024-03-07T13:58:47;11.40;98.00
4505;DHT22;2265;48.794;9.520;2024-03-07T14:01:28;11.30;98.00
4505;DHT22;2265;48.794;9.520;2024-03-07T14:07:22;11.00;98.00
4505;DHT22;2265;48.794;9.520;2024-03-07T14:10:21;10.80;98.00
4505;DHT22;2265;48.794;9.520;2024-03-07T14:13:13;10.70;98.00
4505;DHT22;2265;48.794;9.520;2024-03-07T14:16:12;10.50;98.00
4505;DHT22;2265;48.794;9.520;2024-03-07T14:19:22;10.40;98.00
4505;DHT22;2265;48.794;9.520;2024-03-07T14:22:07;10.40;98.00
4505;DHT22;2265;48.794;9.520;2024-03-07T14:27:57;11.00;98.00
4505;DHT22;2265;48.794;9.520;2024-03-07T14:30:39;11.60;98.00
4505;DHT22;2265;48.794;9.520;2024-03-07T14:33:11;12.00;98.00
4505;DHT22;2265;48.794;9.520;2024-03-07T14:35:58;12.20;98.00
4505;DHT22;2265;48.794;9.520;2024-03-07T14:38:28;12.20;98.00
4505;DHT22;2265;48.794;9.520;2024-03-07T14:40:55;12.00;98.00
4505;DHT22;2265;48.794;9.520;2024-03-07T14:43:24;11.90;98.00
4505;DHT22;2265;48.794;9.520;2024-03-07T14:45:55;11.80;98.00
4505;DHT22;2265;48.794;9.520;2024-03-07T14:48:24;11.60;98.00
4505;DHT22;2265;48.794;9.520;2024-03-07T14:50:53;11.50;98.00
4505;DHT22;2265;48.794;9.520;2024-03-07T14:53:21;11.30;98.00
4505;DHT22;2265;48.794;9.520;2024-03-07T14:55:48;11.10;98.00
4505;DHT22;2265;48.794;9.520;2024-03-07T14:58:15;11.00;98.00
4505;DHT22;2265;48.794;9.520;2024-03-07T15:00:43;11.00;98.00
4505;DHT22;2265;48.794;9.520;2024-03-07T15:03:15;11.00;98.00
4505;DHT22;2265;48.794;9.520;2024-03-07T15:05:44;11.00;98.00
4505;DHT22;2265;48.794;9.520;2024-03-07T15:08:12;10.80;98.00
4505;DHT22;2265;48.794;9.520;2024-03-07T15:10:44;10.60;98.00
4505;DHT22;2265;48.794;9.520;2024-03-07T15:13:14;10.50;98.00
4505;DHT22;2265;48.794;9.520;2024-03-07T15:15:42;10.40;98.00
4505;DHT22;2265;48.794;9.520;2024-03-07T15:18:10;10.50;98.00
4505;DHT22;2265;48.794;9.520;2024-03-07T15:20:38;10.60;98.00
4505;DHT22;2265;48.794;9.520;2024-03-07T15:23:08;10.90;98.00
4505;DHT22;2265;48.794;9.520;2024-03-07T15:25:37;11.10;98.00
4505;DHT22;2265;48.794;9.520;2024-03-07T15:28:04;11.00;98.00
4505;DHT22;2265;48.794;9.520;2024-03-07T15:30:32;10.70;98.00
4505;DHT22;2265;48.794;9.520;2024-03-07T15:33:01;10.60;98.00
4505;DHT22;2265;48.794;9.520;2024-03-07T15:35:29;10.60;98.00
4505;DHT22;2265;48.794;9.520;2024-03-07T15:37:57;10.40;98.00
4505;DHT22;2265;48.794;9.520;2024-03-07T15:40:25;10.20;98.00
4505;DHT22;2265;48.794;9.520;2024-03-07T15:42:55;10.00;98.00
4505;DHT22;2265;48.794;9.520;2024-03-07T15:45:23;9.90;98.00
4505;DHT22;2265;48.794;9.520;2024-03-07T15:47:53;9.80;98.00
4505;DHT22;2265;48.794;9.520;2024-03-07T15:50:21;9.80;98.00
4505;DHT22;2265;48.794;9.520;2024-03-07T15:52:50;9.70;98.00
4505;DHT22;2265;48.794;9.520;2024-03-07T15:55:18;9.60;98.00
4505;DHT22;2265;48.794;9.520;2024-03-07T15:57:52;9.60;98.00
4505;DHT22;2265;48.794;9.520;2024-03-07T16:00:21;9.60;98.00
4505;DHT22;2265;48.794;9.520;2024-03-07T16:02:55;9.70;98.00
4505;DHT22;2265;48.794;9.520;2024-03-07T16:05:23;9.60;98.00
4505;DHT22;2265;48.794;9.520;2024-03-07T16:07:51;9.60;98.00
4505;DHT22;2265;48.794;9.520;2024-03-07T16:10:19;9.60;98.00
4505;DHT22;2265;48.794;9.520;2024-03-07T16:12:51;9.40;98.00
4505;DHT22;2265;48.794;9.520;2024-03-07T16:15:19;9.40;98.00
4505;DHT22;2265;48.794;9.520;2024-03-07T16:17:48;9.30;98.00
4505;DHT22;2265;48.794;9.520;2024-03-07T16:20:15;9.30;98.00
4505;DHT22;2265;48.794;9.520;2024-03-07T16:22:44;9.40;98.00
4505;DHT22;2265;48.794;9.520;2024-03-07T16:25:12;9.40;98.00
4505;DHT22;2265;48.794;9.520;2024-03-07T16:27:44;9.20;98.00
4505;DHT22;2265;48.794;9.520;2024-03-07T16:30:14;9.10;98.00
4505;DHT22;2265;48.794;9.520;2024-03-07T16:32:42;9.20;98.00
4505;DHT22;2265;48.794;9.520;2024-03-07T16:35:13;9.10;98.00